createdAt,value
2022-11-19T00:02:26.910Z,26.90
2022-11-19T00:04:58.799Z,30.00
2022-11-19T00:10:00.263Z,31.50
2022-11-19T00:12:49.585Z,30.30
2022-11-19T00:15:20.948Z,37.80
2022-11-19T00:17:52.444Z,35.30
2022-11-19T00:20:23.812Z,34.40
2022-11-19T00:22:55.709Z,35.30
2022-11-19T00:25:27.722Z,30.90
2022-11-19T00:28:00.354Z,23.60
2022-11-19T00:30:47.524Z,23.70
2022-11-19T00:33:19.859Z,22.10
2022-11-19T00:35:51.245Z,23.70
2022-11-19T00:38:22.617Z,22.20
2022-11-19T00:40:54.246Z,19.10
2022-11-19T00:43:43.631Z,19.30
2022-11-19T00:46:15.419Z,18.00
2022-11-19T00:48:46.959Z,20.40
2022-11-19T00:51:18.758Z,19.60
2022-11-19T00:56:22.779Z,20.60
2022-11-19T00:58:54.114Z,20.40
2022-11-19T01:01:26.181Z,19.00
2022-11-19T01:03:57.599Z,20.20
2022-11-19T01:06:29.119Z,19.50
2022-11-19T01:09:00.474Z,20.90
2022-11-19T01:11:32.897Z,21.60
2022-11-19T01:14:04.611Z,19.10
2022-11-19T01:19:06.789Z,18.80
2022-11-19T01:24:08.917Z,20.10
2022-11-19T01:26:44.431Z,18.60
2022-11-19T01:29:17.672Z,19.50
2022-11-19T01:31:49.326Z,18.20
2022-11-19T01:34:20.767Z,16.50
2022-11-19T01:36:52.104Z,17.20
2022-11-19T01:39:23.675Z,17.80
2022-11-19T01:41:55.048Z,18.70
2022-11-19T01:45:00.653Z,18.80
2022-11-19T01:47:32.078Z,18.30
2022-11-19T01:50:03.620Z,18.50
2022-11-19T01:52:35.086Z,21.30
2022-11-19T01:55:07.478Z,21.60
2022-11-19T01:57:39.408Z,17.10
2022-11-19T02:00:13.114Z,17.70
2022-11-19T02:02:44.464Z,16.50
2022-11-19T02:05:15.813Z,16.30
2022-11-19T02:07:48.861Z,14.70
2022-11-19T02:10:20.382Z,14.90
2022-11-19T02:12:55.310Z,15.00
2022-11-19T02:15:32.163Z,14.30
2022-11-19T02:18:14.967Z,14.20
2022-11-19T02:20:49.088Z,14.70
2022-11-19T02:23:57.249Z,15.10
2022-11-19T02:27:05.390Z,14.60
2022-11-19T02:30:06.531Z,14.40
2022-11-19T02:32:40.172Z,13.90
2022-11-19T02:35:17.714Z,15.20
2022-11-19T02:37:51.291Z,15.40
2022-11-19T02:40:24.626Z,14.70
2022-11-19T02:43:00.891Z,14.40
2022-11-19T02:45:34.203Z,14.20
2022-11-19T02:48:08.284Z,13.90
2022-11-19T02:50:41.445Z,12.90
2022-11-19T02:53:12.902Z,13.10
2022-11-19T02:56:07.019Z,11.30
2022-11-19T02:58:56.590Z,11.00
2022-11-19T03:01:45.822Z,9.60
2022-11-19T03:04:37.164Z,9.70
2022-11-19T03:07:11.265Z,7.50
2022-11-19T03:09:43.671Z,7.60
2022-11-19T03:12:19.093Z,6.40
2022-11-19T03:15:11.801Z,7.50
2022-11-19T03:17:54.426Z,7.30
2022-11-19T03:20:28.264Z,7.80
2022-11-19T03:23:00.827Z,7.50
2022-11-19T03:25:35.438Z,7.00
2022-11-19T03:28:09.676Z,6.30
2022-11-19T03:30:41.158Z,6.00
2022-11-19T03:33:14.746Z,6.50
2022-11-19T03:35:47.750Z,6.80
2022-11-19T03:38:20.396Z,6.40
2022-11-19T03:40:51.795Z,5.90
2022-11-19T03:43:23.212Z,5.40
2022-11-19T03:45:54.718Z,5.20
2022-11-19T03:48:26.272Z,5.60
2022-11-19T03:53:27.757Z,6.40
2022-11-19T03:56:00.920Z,7.50
2022-11-19T03:58:35.309Z,9.20
2022-11-19T04:01:06.769Z,11.00
2022-11-19T04:03:38.391Z,12.30
2022-11-19T04:06:11.168Z,14.40
2022-11-19T04:08:42.470Z,15.60
2022-11-19T04:13:47.927Z,12.80
2022-11-19T04:16:19.304Z,12.20
2022-11-19T04:18:50.586Z,9.90
2022-11-19T04:21:22.045Z,10.40
2022-11-19T04:23:53.374Z,8.30
2022-11-19T04:26:24.759Z,8.30
2022-11-19T04:28:56.348Z,8.50
2022-11-19T04:31:27.986Z,7.20
2022-11-19T04:33:59.329Z,6.00
2022-11-19T04:36:30.714Z,5.80
2022-11-19T04:39:02.018Z,6.10
2022-11-19T04:41:33.403Z,5.80
2022-11-19T04:44:04.989Z,6.30
2022-11-19T04:46:36.392Z,6.00
2022-11-19T04:49:07.909Z,6.60
2022-11-19T04:54:10.306Z,5.70
2022-11-19T04:56:42.044Z,6.70
2022-11-19T04:59:13.561Z,7.30
2022-11-19T05:01:45.145Z,6.40
2022-11-19T05:04:16.741Z,6.10
2022-11-19T05:06:48.744Z,6.30
2022-11-19T05:09:20.341Z,7.20
2022-11-19T05:11:51.969Z,6.10
2022-11-19T05:14:27.369Z,6.90
2022-11-19T05:17:01.728Z,6.70
2022-11-19T05:19:33.248Z,6.00
2022-11-19T05:22:04.598Z,7.60
2022-11-19T05:24:36.148Z,6.60
2022-11-19T05:27:07.703Z,7.30
2022-11-19T05:29:39.266Z,6.10
2022-11-19T05:32:10.656Z,7.20
2022-11-19T05:34:42.049Z,8.10
2022-11-19T05:37:13.495Z,7.00
2022-11-19T05:39:45.177Z,7.50
2022-11-19T05:42:16.676Z,7.00
2022-11-19T05:44:48.165Z,5.90
2022-11-19T05:47:19.542Z,6.60
2022-11-19T05:49:50.914Z,6.40
2022-11-19T05:52:22.262Z,6.10
2022-11-19T05:54:54.152Z,5.80
2022-11-19T05:57:25.908Z,5.50
2022-11-19T05:59:57.281Z,5.70
2022-11-19T06:04:58.937Z,5.80
2022-11-19T06:07:30.663Z,5.90
2022-11-19T06:10:02.449Z,5.50
2022-11-19T06:12:34.641Z,6.10
2022-11-19T06:15:07.125Z,4.80
2022-11-19T06:17:38.981Z,4.60
2022-11-19T06:20:11.878Z,5.40
2022-11-19T06:22:43.648Z,4.80
2022-11-19T06:25:15.283Z,4.40
2022-11-19T06:30:17.355Z,4.80
2022-11-19T06:32:48.921Z,4.70
2022-11-19T06:35:20.540Z,4.20
2022-11-19T06:40:21.886Z,4.20
2022-11-19T06:42:53.538Z,4.00
2022-11-19T06:45:25.161Z,4.00
2022-11-19T06:50:26.551Z,3.70
2022-11-19T06:55:29.080Z,4.00
2022-11-19T06:58:04.314Z,4.30
2022-11-19T07:00:35.771Z,4.00
2022-11-19T07:03:07.717Z,3.90
2022-11-19T07:05:39.369Z,3.50
2022-11-19T07:08:10.868Z,3.50
2022-11-19T07:10:42.393Z,3.10
2022-11-19T07:13:13.925Z,3.10
2022-11-19T07:15:45.645Z,3.50
2022-11-19T07:20:48.120Z,3.70
2022-11-19T07:23:20.600Z,3.90
2022-11-19T07:25:53.156Z,4.40
2022-11-19T07:28:24.888Z,3.80
2022-11-19T07:30:56.465Z,3.80
2022-11-19T07:33:28.214Z,4.40
2022-11-19T07:38:34.099Z,4.50
2022-11-19T07:41:28.977Z,6.80
2022-11-19T07:44:00.337Z,3.90
2022-11-19T07:46:31.976Z,4.50
2022-11-19T07:49:03.465Z,4.30
2022-11-19T07:51:34.758Z,4.00
2022-11-19T07:54:06.322Z,4.60
2022-11-19T07:56:39.027Z,4.20
2022-11-19T07:59:15.941Z,4.80
2022-11-19T08:01:48.480Z,4.50
2022-11-19T08:04:21.195Z,5.40
2022-11-19T08:06:55.384Z,6.40
2022-11-19T08:09:28.633Z,6.00
2022-11-19T08:12:02.614Z,6.90
2022-11-19T08:14:37.819Z,6.80
2022-11-19T08:17:29.287Z,8.40
2022-11-19T08:20:02.640Z,8.20
2022-11-19T08:22:37.634Z,8.70
2022-11-19T08:25:11.504Z,8.90
2022-11-19T08:27:44.857Z,9.10
2022-11-19T08:30:18.675Z,10.70
2022-11-19T08:32:51.209Z,10.90
2022-11-19T08:35:24.093Z,11.00
2022-11-19T08:37:58.575Z,9.90
2022-11-19T08:40:31.184Z,10.50
2022-11-19T08:43:03.881Z,12.00
2022-11-19T08:45:37.146Z,12.10
2022-11-19T08:48:12.182Z,10.50
2022-11-19T08:50:48.759Z,10.60
2022-11-19T08:53:21.053Z,10.20
2022-11-19T08:55:55.351Z,11.40
2022-11-19T08:58:27.594Z,10.40
2022-11-19T09:01:03.555Z,10.20
2022-11-19T09:03:36.707Z,9.10
2022-11-19T09:06:09.709Z,9.90
2022-11-19T09:08:41.859Z,10.80
2022-11-19T09:11:18.706Z,9.40
2022-11-19T09:13:51.149Z,10.10
2022-11-19T09:16:24.461Z,10.40
2022-11-19T09:19:01.885Z,9.70
2022-11-19T09:21:37.927Z,9.80
2022-11-19T09:24:18.395Z,8.40
2022-11-19T09:26:53.217Z,8.90
2022-11-19T09:29:26.643Z,9.80
2022-11-19T09:32:03.486Z,10.20
2022-11-19T09:34:46.004Z,9.70
2022-11-19T09:37:22.026Z,10.00
2022-11-19T09:39:54.908Z,9.50
2022-11-19T09:42:29.705Z,11.60
2022-11-19T09:45:17.769Z,9.80
2022-11-19T09:48:06.932Z,10.30
2022-11-19T09:50:53.477Z,11.00
2022-11-19T09:53:30.863Z,11.50
2022-11-19T09:56:07.516Z,11.30
2022-11-19T09:58:41.696Z,10.80
2022-11-19T10:01:17.045Z,11.20
2022-11-19T10:03:49.808Z,11.40
2022-11-19T10:06:29.243Z,10.60
2022-11-19T10:09:17.803Z,12.00
2022-11-19T10:11:57.344Z,13.10
2022-11-19T10:14:55.895Z,12.30
2022-11-19T10:17:33.116Z,12.70
2022-11-19T10:20:13.870Z,12.40
2022-11-19T10:22:47.372Z,12.60
2022-11-19T10:25:21.164Z,11.70
2022-11-19T10:27:55.605Z,13.20
2022-11-19T10:30:28.265Z,11.90
2022-11-19T10:33:01.529Z,12.40
2022-11-19T10:35:34.068Z,12.10
2022-11-19T10:38:06.810Z,11.50
2022-11-19T10:40:40.766Z,12.30
2022-11-19T10:43:22.068Z,11.60
2022-11-19T10:45:54.935Z,11.80
2022-11-19T10:48:27.087Z,12.30
2022-11-19T10:50:58.766Z,12.00
2022-11-19T10:53:31.782Z,10.90
2022-11-19T10:56:05.111Z,12.00
2022-11-19T10:58:38.729Z,12.00
2022-11-19T11:01:17.232Z,10.70
2022-11-19T11:03:51.232Z,13.70
2022-11-19T11:06:22.707Z,12.60
2022-11-19T11:08:55.078Z,11.30
2022-11-19T11:11:49.214Z,12.60
2022-11-19T11:14:38.783Z,12.10
2022-11-19T11:17:20.039Z,10.50
2022-11-19T11:20:03.490Z,11.10
2022-11-19T11:22:35.306Z,12.40
2022-11-19T11:27:39.111Z,12.80
2022-11-19T11:30:18.484Z,11.20
2022-11-19T11:32:50.094Z,11.50
2022-11-19T11:35:35.869Z,12.10
2022-11-19T11:38:07.389Z,12.00
2022-11-19T11:40:38.813Z,11.70
2022-11-19T11:43:16.082Z,12.50
2022-11-19T11:45:48.001Z,10.80
2022-11-19T11:48:22.594Z,10.80
2022-11-19T11:50:53.944Z,10.10
2022-11-19T11:53:33.230Z,10.40
2022-11-19T11:56:05.090Z,8.00
2022-11-19T11:58:36.857Z,7.20
2022-11-19T12:04:04.120Z,4.20
2022-11-19T12:06:38.892Z,4.10
2022-11-19T12:09:11.831Z,4.00
2022-11-19T12:12:02.930Z,3.60
2022-11-19T12:14:35.876Z,4.20
2022-11-19T12:17:22.432Z,3.80
2022-11-19T12:20:02.438Z,4.10
2022-11-19T12:22:40.707Z,3.80
2022-11-19T12:25:23.159Z,3.30
2022-11-19T12:28:05.364Z,4.20
2022-11-19T12:30:40.329Z,3.60
2022-11-19T12:33:21.002Z,4.40
2022-11-19T12:35:58.395Z,3.50
2022-11-19T12:38:36.271Z,3.60
2022-11-19T12:41:19.756Z,3.30
2022-11-19T12:43:57.511Z,3.90
2022-11-19T12:46:52.515Z,3.40
2022-11-19T12:49:50.331Z,3.80
2022-11-19T12:52:31.631Z,3.40
2022-11-19T12:55:06.102Z,3.20
2022-11-19T12:57:48.511Z,2.80
2022-11-19T13:00:22.610Z,3.10
2022-11-19T13:03:02.336Z,3.00
2022-11-19T13:05:43.904Z,2.90
2022-11-19T13:08:20.555Z,3.50
2022-11-19T13:11:16.392Z,3.30
2022-11-19T13:13:50.932Z,3.10
2022-11-19T13:16:28.748Z,3.90
2022-11-19T13:19:12.505Z,4.20
2022-11-19T13:21:51.069Z,3.80
2022-11-19T13:24:30.303Z,4.70
2022-11-19T13:27:06.397Z,3.70
2022-11-19T13:29:42.739Z,4.00
2022-11-19T13:32:19.648Z,3.90
2022-11-19T13:34:59.937Z,4.70
2022-11-19T13:37:50.040Z,3.70
2022-11-19T13:40:37.397Z,4.20
2022-11-19T13:43:33.215Z,4.30
2022-11-19T13:46:24.757Z,4.40
2022-11-19T13:49:05.675Z,4.40
2022-11-19T13:51:45.054Z,4.20
2022-11-19T13:54:26.807Z,4.20
2022-11-19T13:57:04.073Z,4.90
2022-11-19T13:59:39.137Z,5.30
2022-11-19T14:02:57.340Z,5.70
2022-11-19T14:06:04.038Z,5.80
2022-11-19T14:08:44.604Z,5.10
2022-11-19T14:11:26.291Z,4.80
2022-11-19T14:14:32.574Z,4.80
2022-11-19T14:17:26.269Z,5.10
2022-11-19T14:20:53.775Z,4.60
2022-11-19T14:24:05.212Z,4.90
2022-11-19T14:27:16.564Z,5.60
2022-11-19T14:30:04.108Z,5.00
2022-11-19T14:32:46.372Z,5.10
2022-11-19T14:35:35.195Z,6.20
2022-11-19T14:38:37.741Z,5.10
2022-11-19T14:41:23.235Z,5.60
2022-11-19T14:44:34.851Z,4.90
2022-11-19T14:47:34.235Z,5.40
2022-11-19T14:50:09.289Z,4.60
2022-11-19T14:52:51.452Z,5.90
2022-11-19T14:55:25.696Z,6.00
2022-11-19T14:58:00.332Z,5.20
2022-11-19T15:00:35.643Z,5.50
2022-11-19T15:03:14.226Z,4.80
2022-11-19T15:05:47.996Z,5.30
2022-11-19T15:08:53.417Z,5.90
2022-11-19T15:11:29.860Z,4.50
2022-11-19T15:14:38.349Z,4.10
2022-11-19T15:17:11.898Z,4.40
2022-11-19T15:19:45.893Z,4.30
2022-11-19T15:22:35.394Z,4.10
2022-11-19T15:25:18.921Z,4.00
2022-11-19T15:27:59.663Z,4.90
2022-11-19T15:30:39.165Z,4.80
2022-11-19T15:33:30.256Z,5.30
2022-11-19T15:36:19.943Z,5.10
2022-11-19T15:38:57.873Z,5.00
2022-11-19T15:41:34.433Z,5.10
2022-11-19T15:44:16.933Z,6.10
2022-11-19T15:46:52.724Z,6.60
2022-11-19T15:49:27.475Z,5.40
2022-11-19T15:52:13.001Z,5.40
2022-11-19T15:54:49.761Z,5.10
2022-11-19T15:57:27.399Z,4.60
2022-11-19T16:00:02.359Z,5.30
2022-11-19T16:02:42.817Z,5.80
2022-11-19T16:05:23.219Z,7.10
2022-11-19T16:07:55.406Z,4.80
2022-11-19T16:10:29.920Z,4.80
2022-11-19T16:13:20.708Z,4.00
2022-11-19T16:16:12.407Z,3.90
2022-11-19T16:18:54.027Z,4.40
2022-11-19T16:21:28.850Z,4.00
2022-11-19T16:24:19.329Z,4.40
2022-11-19T16:26:52.231Z,4.40
2022-11-19T16:29:26.548Z,4.20
2022-11-19T16:32:00.051Z,5.00
2022-11-19T16:34:34.411Z,4.90
2022-11-19T16:37:06.624Z,4.00
2022-11-19T16:39:39.240Z,4.30
2022-11-19T16:42:23.090Z,4.60
2022-11-19T16:44:57.270Z,4.10
2022-11-19T16:47:32.269Z,4.00
2022-11-19T16:50:06.388Z,4.20
2022-11-19T16:52:48.981Z,4.10
2022-11-19T16:55:57.281Z,4.30
2022-11-19T16:58:32.429Z,4.70
2022-11-19T17:01:06.438Z,5.10
2022-11-19T17:03:46.508Z,5.30
2022-11-19T17:06:26.146Z,5.90
2022-11-19T17:09:09.006Z,5.70
2022-11-19T17:12:08.869Z,6.10
2022-11-19T17:15:00.372Z,5.60
2022-11-19T17:17:42.832Z,5.10
2022-11-19T17:20:50.974Z,5.30
2022-11-19T17:23:23.367Z,4.60
2022-11-19T17:25:55.794Z,5.50
2022-11-19T17:28:41.281Z,5.50
2022-11-19T17:31:20.524Z,4.90
2022-11-19T17:33:57.191Z,5.60
2022-11-19T17:36:30.705Z,4.80
2022-11-19T17:39:07.566Z,5.50
2022-11-19T17:41:58.880Z,5.00
2022-11-19T17:44:36.825Z,6.00
2022-11-19T17:47:22.351Z,6.10
2022-11-19T17:50:00.500Z,5.70
2022-11-19T17:52:38.672Z,5.40
2022-11-19T17:55:18.865Z,6.10
2022-11-19T17:57:54.480Z,5.40
2022-11-19T18:00:33.766Z,5.70
2022-11-19T18:03:13.295Z,6.00
2022-11-19T18:05:57.334Z,5.50
2022-11-19T18:08:35.759Z,6.80
2022-11-19T18:11:20.658Z,6.50
2022-11-19T18:14:02.785Z,6.20
2022-11-19T18:16:39.198Z,6.20
2022-11-19T18:19:24.458Z,6.20
2022-11-19T18:22:02.481Z,5.90
2022-11-19T18:24:36.920Z,7.00
2022-11-19T18:27:13.201Z,6.00
2022-11-19T18:29:50.151Z,6.70
2022-11-19T18:32:30.035Z,6.10
2022-11-19T18:35:11.415Z,6.50
2022-11-19T18:37:48.626Z,6.20
2022-11-19T18:40:26.052Z,5.80
2022-11-19T18:43:17.251Z,6.40
2022-11-19T18:45:54.170Z,6.50
2022-11-19T18:48:29.777Z,7.20
2022-11-19T18:51:03.257Z,7.20
2022-11-19T18:53:36.724Z,6.60
2022-11-19T18:56:13.592Z,7.30
2022-11-19T18:58:49.693Z,6.80
2022-11-19T19:01:25.584Z,6.20
2022-11-19T19:04:00.403Z,6.30
2022-11-19T19:06:36.830Z,6.80
2022-11-19T19:09:10.757Z,6.90
2022-11-19T19:12:00.175Z,6.50
2022-11-19T19:14:32.150Z,7.20
2022-11-19T19:17:06.807Z,7.10
2022-11-19T19:19:40.973Z,6.30
2022-11-19T19:22:12.929Z,6.80
2022-11-19T19:24:44.680Z,6.70
2022-11-19T19:27:16.680Z,8.00
2022-11-19T19:29:48.548Z,6.80
2022-11-19T19:34:50.325Z,7.20
2022-11-19T19:37:22.296Z,7.20
2022-11-19T19:39:54.199Z,7.60
2022-11-19T19:42:25.665Z,7.20
2022-11-19T19:44:58.952Z,7.10
2022-11-19T19:47:30.702Z,8.20
2022-11-19T19:50:02.450Z,7.00
2022-11-19T19:55:03.772Z,7.50
2022-11-19T19:57:35.619Z,7.40
2022-11-19T20:00:09.289Z,7.80
2022-11-19T20:02:43.777Z,6.30
2022-11-19T20:07:45.294Z,7.30
2022-11-19T20:10:17.213Z,6.40
2022-11-19T20:13:06.419Z,7.00
2022-11-19T20:15:38.888Z,6.80
2022-11-19T20:18:10.727Z,6.70
2022-11-19T20:20:42.341Z,6.80
2022-11-19T20:23:13.970Z,6.70
2022-11-19T20:28:15.394Z,7.10
2022-11-19T20:33:16.962Z,6.70
2022-11-19T20:35:54.240Z,7.30
2022-11-19T20:38:25.946Z,6.40
2022-11-19T20:43:52.547Z,9.00
2022-11-19T20:46:25.095Z,8.20
2022-11-19T20:48:56.732Z,7.90
2022-11-19T20:53:58.721Z,8.40
2022-11-19T20:56:30.928Z,8.10
2022-11-19T20:59:02.514Z,7.60
2022-11-19T21:01:34.612Z,7.60
2022-11-19T21:04:06.347Z,7.40
2022-11-19T21:06:37.737Z,7.40
2022-11-19T21:09:09.178Z,8.00
2022-11-19T21:11:40.746Z,7.80
2022-11-19T21:14:12.679Z,7.60
2022-11-19T21:16:44.158Z,7.40
2022-11-19T21:19:15.828Z,7.50
2022-11-19T21:24:17.241Z,7.40
2022-11-19T21:26:48.649Z,7.60
2022-11-19T21:29:20.316Z,7.70
2022-11-19T21:31:52.001Z,6.70
2022-11-19T21:36:53.306Z,6.80
2022-11-19T21:39:24.948Z,7.30
2022-11-19T21:41:57.127Z,6.70
2022-11-19T21:44:28.624Z,7.60
2022-11-19T21:46:59.923Z,8.20
2022-11-19T21:49:31.297Z,7.70
2022-11-19T21:52:02.686Z,6.80
2022-11-19T21:54:34.144Z,7.50
2022-11-19T21:57:05.655Z,7.40
2022-11-19T21:59:37.069Z,7.00
2022-11-19T22:02:08.443Z,6.90
2022-11-19T22:04:39.974Z,7.50
2022-11-19T22:07:11.559Z,8.10
2022-11-19T22:09:43.208Z,6.90
2022-11-19T22:12:14.628Z,7.40
2022-11-19T22:14:46.168Z,7.70
2022-11-19T22:19:48.480Z,8.40
2022-11-19T22:22:19.812Z,8.20
2022-11-19T22:25:00.065Z,8.40
2022-11-19T22:27:32.482Z,8.00
2022-11-19T22:30:06.094Z,8.20
2022-11-19T22:32:37.803Z,7.70
2022-11-19T22:35:10.499Z,7.30
2022-11-19T22:37:41.977Z,8.30
2022-11-19T22:40:15.747Z,8.80
2022-11-19T22:42:47.307Z,9.40
2022-11-19T22:45:18.870Z,8.20
2022-11-19T22:47:50.355Z,8.60
2022-11-19T22:50:22.548Z,8.10
2022-11-19T22:52:53.873Z,8.80
2022-11-19T22:55:25.479Z,8.70
2022-11-19T22:57:56.929Z,8.80
2022-11-19T23:00:42.197Z,7.60
2022-11-19T23:03:13.831Z,7.70
2022-11-19T23:08:18.896Z,7.30
2022-11-19T23:10:50.363Z,8.80
2022-11-19T23:13:34.325Z,8.40
2022-11-19T23:16:07.673Z,7.80
2022-11-19T23:18:39.700Z,8.60
2022-11-19T23:21:12.075Z,7.00
2022-11-19T23:23:43.456Z,9.20
2022-11-19T23:26:15.966Z,8.50
2022-11-19T23:28:47.389Z,9.40
2022-11-19T23:31:20.325Z,8.20
2022-11-19T23:33:57.421Z,9.00
2022-11-19T23:36:31.267Z,8.20
2022-11-19T23:39:02.635Z,8.50
2022-11-19T23:41:34.302Z,8.90
2022-11-19T23:46:36.017Z,9.60
2022-11-19T23:49:07.455Z,8.20
2022-11-19T23:51:40.395Z,8.30
2022-11-19T23:54:14.623Z,8.80
2022-11-19T23:56:46.318Z,8.70
